Time;durP1;ratioP1;P1;durP2;ratioP2;P2;SDS_P1;SDS_P2;PMS_P1;PMS_P2;Temp;Humidity;BMP_temperature;BMP_pressure;BME280_temperature;BME280_humidity;BME280_pressure;Samples;Min_cycle;Max_cycle;Signal;HPM_P1;HPM_P2
2022/11/15 00:00:14;;;;;;;5.00;4.60;;;;;;;;;;5037711;28;20261;-69
2022/11/15 00:02:43;;;;;;;4.55;4.18;;;;;;;;;;5037553;28;20202;-68
2022/11/15 00:05:11;;;;;;;4.40;4.10;;;;;;;;;;5037293;28;20271;-67
2022/11/15 00:07:39;;;;;;;4.28;3.97;;;;;;;;;;5037544;28;20432;-67
2022/11/15 00:10:07;;;;;;;4.53;4.18;;;;;;;;;;5037103;28;20519;-68
2022/11/15 00:12:35;;;;;;;4.78;4.38;;;;;;;;;;5037272;28;20209;-68
2022/11/15 00:15:02;;;;;;;4.05;3.75;;;;;;;;;;5037008;28;20206;-68
2022/11/15 00:17:30;;;;;;;5.05;4.60;;;;;;;;;;5037204;28;20300;-67
2022/11/15 00:19:59;;;;;;;4.60;4.20;;;;;;;;;;5036906;28;20201;-67
2022/11/15 00:22:32;;;;;;;4.63;4.32;;;;;;;;;;5036969;28;20244;-68
2022/11/15 00:25:00;;;;;;;4.63;4.22;;;;;;;;;;5037077;28;20567;-68
2022/11/15 00:27:28;;;;;;;5.00;4.47;;;;;;;;;;5037377;28;20214;-68
2022/11/15 00:29:56;;;;;;;4.60;4.20;;;;;;;;;;5037319;28;20635;-68
2022/11/15 00:32:23;;;;;;;4.43;4.10;;;;;;;;;;5037358;28;20206;-68
2022/11/15 00:34:51;;;;;;;5.03;4.63;;;;;;;;;;5036798;28;20221;-68
2022/11/15 00:37:20;;;;;;;4.72;4.32;;;;;;;;;;5036953;28;20271;-68
2022/11/15 00:39:48;;;;;;;4.50;4.10;;;;;;;;;;5037064;28;20256;-68
2022/11/15 00:42:16;;;;;;;4.35;3.95;;;;;;;;;;5037025;28;20209;-68
2022/11/15 00:44:43;;;;;;;4.40;4.00;;;;;;;;;;5037138;28;20205;-68
2022/11/15 00:47:11;;;;;;;4.57;4.18;;;;;;;;;;5037076;28;20213;-69
2022/11/15 00:49:39;;;;;;;4.30;3.90;;;;;;;;;;5036967;28;20229;-69
2022/11/15 00:52:06;;;;;;;4.57;4.18;;;;;;;;;;5037020;28;20216;-68
2022/11/15 00:54:36;;;;;;;4.80;4.40;;;;;;;;;;5036889;28;20551;-69
2022/11/15 00:57:04;;;;;;;4.32;4.00;;;;;;;;;;5037219;28;20205;-69
2022/11/15 00:59:32;;;;;;;4.18;3.88;;;;;;;;;;5037024;28;20338;-69
2022/11/15 01:02:00;;;;;;;4.05;3.75;;;;;;;;;;5037041;28;20213;-68
2022/11/15 01:04:27;;;;;;;4.13;3.83;;;;;;;;;;5040138;28;20299;-68
2022/11/15 01:06:55;;;;;;;3.85;3.55;;;;;;;;;;5040449;28;20212;-68
2022/11/15 01:09:23;;;;;;;4.20;3.90;;;;;;;;;;5040823;28;20244;-68
2022/11/15 01:11:52;;;;;;;4.07;3.78;;;;;;;;;;5040780;28;20420;-68
2022/11/15 01:14:20;;;;;;;4.72;4.20;;;;;;;;;;5041219;28;20252;-68
2022/11/15 01:16:47;;;;;;;3.97;3.67;;;;;;;;;;5041114;28;20210;-68
2022/11/15 01:19:15;;;;;;;4.30;4.00;;;;;;;;;;5040598;28;20209;-68
2022/11/15 01:21:43;;;;;;;4.60;4.20;;;;;;;;;;5040621;28;20206;-69
2022/11/15 01:24:13;;;;;;;4.20;3.90;;;;;;;;;;5040732;28;20217;-67
2022/11/15 01:26:41;;;;;;;4.25;3.90;;;;;;;;;;5040491;28;20205;-68
2022/11/15 01:29:10;;;;;;;4.38;3.70;;;;;;;;;;5040420;28;20206;-68
2022/11/15 01:31:38;;;;;;;4.55;4.15;;;;;;;;;;5040442;28;20206;-70
2022/11/15 01:34:06;;;;;;;4.45;4.00;;;;;;;;;;5040713;28;20210;-68
2022/11/15 01:36:33;;;;;;;4.55;4.15;;;;;;;;;;5040020;28;20205;-68
2022/11/15 01:39:01;;;;;;;4.18;3.88;;;;;;;;;;5040129;28;20271;-68
2022/11/15 01:41:30;;;;;;;4.18;3.83;;;;;;;;;;5040575;28;20233;-68
2022/11/15 01:43:59;;;;;;;4.07;3.78;;;;;;;;;;5040111;28;20482;-68
2022/11/15 01:46:33;;;;;;;4.22;3.92;;;;;;;;;;5039982;28;20205;-68
2022/11/15 01:49:04;;;;;;;4.10;3.80;;;;;;;;;;5039724;28;20579;-68
2022/11/15 01:51:34;;;;;;;3.80;3.50;;;;;;;;;;5039826;28;20284;-68
2022/11/15 01:54:05;;;;;;;4.15;3.78;;;;;;;;;;5040205;28;20209;-69
2022/11/15 01:56:35;;;;;;;4.00;3.70;;;;;;;;;;5039823;28;20213;-68
2022/11/15 01:59:04;;;;;;;4.22;3.83;;;;;;;;;;5039747;28;20307;-68
2022/11/15 02:01:35;;;;;;;4.13;3.83;;;;;;;;;;5039847;28;20267;-68
2022/11/15 02:04:08;;;;;;;4.15;3.85;;;;;;;;;;5039747;28;20205;-68
2022/11/15 02:06:36;;;;;;;3.80;3.50;;;;;;;;;;5039687;28;20205;-68
2022/11/15 02:09:05;;;;;;;4.28;3.97;;;;;;;;;;5040068;28;20238;-68
2022/11/15 02:11:32;;;;;;;4.28;3.80;;;;;;;;;;5040080;28;20281;-69
2022/11/15 02:14:01;;;;;;;3.95;3.65;;;;;;;;;;5039267;28;20308;-68
2022/11/15 02:16:33;;;;;;;4.03;3.72;;;;;;;;;;5039032;28;20268;-68
2022/11/15 02:19:07;;;;;;;3.85;3.55;;;;;;;;;;5039693;28;20209;-67
2022/11/15 02:21:38;;;;;;;4.40;4.00;;;;;;;;;;5039559;28;20284;-71
2022/11/15 02:24:22;;;;;;;4.35;3.70;;;;;;;;;;5039493;28;20205;-71
2022/11/15 02:27:22;;;;;;;3.92;3.63;;;;;;;;;;5036286;28;20206;-71
2022/11/15 02:30:02;;;;;;;3.92;3.63;;;;;;;;;;4940186;29;20363;-71
2022/11/15 02:32:35;;;;;;;3.88;3.58;;;;;;;;;;4940748;29;20209;-72
2022/11/15 02:35:04;;;;;;;4.07;3.78;;;;;;;;;;4997402;28;20206;-71
2022/11/15 02:37:36;;;;;;;3.70;3.40;;;;;;;;;;5039263;28;20752;-71
2022/11/15 02:40:09;;;;;;;4.18;3.78;;;;;;;;;;5038896;28;20208;-72
2022/11/15 02:45:26;;;;;;;4.28;3.88;;;;;;;;;;5038844;28;20251;-71
2022/11/15 02:47:57;;;;;;;3.92;3.63;;;;;;;;;;5038673;28;20308;-71
2022/11/15 02:50:27;;;;;;;3.85;3.55;;;;;;;;;;5038726;28;20603;-71
2022/11/15 02:52:55;;;;;;;4.28;3.88;;;;;;;;;;5039153;28;20217;-70
2022/11/15 02:55:29;;;;;;;4.00;3.60;;;;;;;;;;5039128;28;20202;-71
2022/11/15 02:58:07;;;;;;;4.20;3.80;;;;;;;;;;5038692;28;20494;-71
2022/11/15 03:00:37;;;;;;;3.50;3.20;;;;;;;;;;5038401;28;20237;-70
2022/11/15 03:03:18;;;;;;;3.75;3.45;;;;;;;;;;5038929;28;20216;-71
2022/11/15 03:05:48;;;;;;;3.85;3.55;;;;;;;;;;5039069;28;20228;-71
2022/11/15 03:08:18;;;;;;;3.45;3.15;;;;;;;;;;5038043;28;20597;-71
2022/11/15 03:10:50;;;;;;;4.07;3.78;;;;;;;;;;5038512;28;20232;-71
2022/11/15 03:13:22;;;;;;;4.32;3.97;;;;;;;;;;5038477;28;20205;-71
2022/11/15 03:15:54;;;;;;;3.83;3.35;;;;;;;;;;5038210;28;20260;-71
2022/11/15 03:18:25;;;;;;;4.15;3.85;;;;;;;;;;5038501;28;20202;-71
2022/11/15 03:20:54;;;;;;;3.90;3.60;;;;;;;;;;5038301;28;20317;-71
2022/11/15 03:23:22;;;;;;;3.83;3.53;;;;;;;;;;5038448;28;20509;-71
2022/11/15 03:25:52;;;;;;;4.00;3.70;;;;;;;;;;5038255;28;20252;-71
2022/11/15 03:28:22;;;;;;;4.00;3.70;;;;;;;;;;5038311;28;20213;-71
2022/11/15 03:30:51;;;;;;;4.00;3.70;;;;;;;;;;5038113;28;20229;-71
2022/11/15 03:33:20;;;;;;;3.78;3.47;;;;;;;;;;5038189;28;20237;-71
2022/11/15 03:35:50;;;;;;;3.45;3.15;;;;;;;;;;5038266;28;20214;-71
2022/11/15 03:38:19;;;;;;;4.10;3.75;;;;;;;;;;5038306;28;20531;-71
2022/11/15 03:40:49;;;;;;;3.80;3.50;;;;;;;;;;5037470;28;20202;-71
2022/11/15 03:43:22;;;;;;;4.15;3.85;;;;;;;;;;5038142;28;20486;-71
2022/11/15 03:45:52;;;;;;;3.92;3.63;;;;;;;;;;5037575;28;20512;-71
2022/11/15 03:48:22;;;;;;;4.18;3.85;;;;;;;;;;5037807;28;20336;-71
2022/11/15 03:50:51;;;;;;;3.80;3.50;;;;;;;;;;5036703;28;20233;-71
2022/11/15 03:53:19;;;;;;;3.78;3.47;;;;;;;;;;5037121;28;20209;-71
2022/11/15 03:55:46;;;;;;;3.53;3.22;;;;;;;;;;5038055;28;20232;-72
2022/11/15 03:58:14;;;;;;;3.78;3.47;;;;;;;;;;5037536;28;20216;-71
2022/11/15 04:00:41;;;;;;;3.80;3.50;;;;;;;;;;5036706;28;20209;-71
2022/11/15 04:03:09;;;;;;;3.70;3.40;;;;;;;;;;5037395;28;20213;-71
2022/11/15 04:05:38;;;;;;;3.88;3.58;;;;;;;;;;5037464;28;20205;-71
2022/11/15 04:08:07;;;;;;;3.50;3.20;;;;;;;;;;5036927;28;20245;-71
2022/11/15 04:10:34;;;;;;;3.65;3.35;;;;;;;;;;5037202;28;20592;-71
2022/11/15 04:13:04;;;;;;;3.92;3.63;;;;;;;;;;5037424;28;20216;-71
2022/11/15 04:15:31;;;;;;;3.78;3.47;;;;;;;;;;5037667;28;20537;-72
2022/11/15 04:17:59;;;;;;;3.60;3.30;;;;;;;;;;5037256;28;20245;-72
2022/11/15 04:26:00;;;;;;;4.00;3.67;;;;;;;;;;5036087;28;20196;-71
2022/11/15 04:28:28;;;;;;;3.42;3.13;;;;;;;;;;5036610;28;20491;-71
2022/11/15 04:30:56;;;;;;;3.92;3.63;;;;;;;;;;5037079;28;20224;-72
2022/11/15 04:33:23;;;;;;;3.70;3.40;;;;;;;;;;5036811;28;20271;-71
2022/11/15 04:38:34;;;;;;;3.33;3.03;;;;;;;;;;5035684;28;20193;-71
2022/11/15 04:41:02;;;;;;;3.38;3.10;;;;;;;;;;5036872;28;20202;-71
2022/11/15 04:43:29;;;;;;;3.70;3.40;;;;;;;;;;5036852;28;20536;-71
2022/11/15 04:45:58;;;;;;;3.67;3.38;;;;;;;;;;5037213;28;20217;-71
2022/11/15 04:48:26;;;;;;;3.20;3.00;;;;;;;;;;5036972;28;20255;-71
2022/11/15 04:50:54;;;;;;;3.35;3.10;;;;;;;;;;5037061;28;20237;-71
2022/11/15 04:53:22;;;;;;;3.60;3.30;;;;;;;;;;5036963;28;20209;-71
2022/11/15 04:55:51;;;;;;;3.80;3.50;;;;;;;;;;5036809;28;20209;-71
2022/11/15 04:58:19;;;;;;;3.78;3.47;;;;;;;;;;5036345;28;20205;-71
2022/11/15 05:00:47;;;;;;;3.70;3.40;;;;;;;;;;5036558;28;20244;-71
2022/11/15 05:05:59;;;;;;;3.53;3.22;;;;;;;;;;5035318;28;20189;-71
2022/11/15 05:08:27;;;;;;;3.78;3.47;;;;;;;;;;5036080;28;20244;-71
2022/11/15 05:10:56;;;;;;;3.58;3.28;;;;;;;;;;5035518;28;20221;-71
2022/11/15 05:13:23;;;;;;;3.60;3.30;;;;;;;;;;5035494;28;20575;-71
2022/11/15 05:15:50;;;;;;;3.47;3.17;;;;;;;;;;5035962;28;20498;-71
2022/11/15 05:18:18;;;;;;;3.42;3.13;;;;;;;;;;5035788;28;20197;-71
2022/11/15 05:20:45;;;;;;;3.72;3.42;;;;;;;;;;5034831;28;20209;-72
2022/11/15 05:23:13;;;;;;;3.45;3.22;;;;;;;;;;5035970;28;20202;-71
2022/11/15 05:25:40;;;;;;;3.47;3.17;;;;;;;;;;5035658;28;20212;-70
2022/11/15 05:28:09;;;;;;;3.08;2.88;;;;;;;;;;5035622;28;20197;-70
2022/11/15 05:30:36;;;;;;;3.63;3.33;;;;;;;;;;5035899;28;20206;-70
2022/11/15 05:33:04;;;;;;;3.65;3.35;;;;;;;;;;5035711;28;20259;-70
2022/11/15 05:35:32;;;;;;;3.53;3.22;;;;;;;;;;5035584;28;20206;-70
2022/11/15 05:37:59;;;;;;;3.40;3.10;;;;;;;;;;5035489;28;20209;-71
2022/11/15 05:40:27;;;;;;;3.53;3.17;;;;;;;;;;5035875;28;20240;-71
2022/11/15 05:42:55;;;;;;;3.70;3.40;;;;;;;;;;5035379;28;20312;-71
2022/11/15 05:45:24;;;;;;;3.60;3.30;;;;;;;;;;5034952;28;20614;-71
2022/11/15 05:47:52;;;;;;;3.65;3.25;;;;;;;;;;5035291;28;20235;-71
2022/11/15 05:50:20;;;;;;;3.75;3.28;;;;;;;;;;5035977;28;20205;-71
2022/11/15 05:52:47;;;;;;;5.28;3.20;;;;;;;;;;5038083;28;20225;-71
2022/11/15 05:55:15;;;;;;;3.28;3.05;;;;;;;;;;5037041;28;20313;-71
2022/11/15 05:57:43;;;;;;;3.60;3.30;;;;;;;;;;5038055;28;20213;-71
2022/11/15 06:00:11;;;;;;;3.45;3.15;;;;;;;;;;5037919;28;20241;-71
2022/11/15 06:02:39;;;;;;;3.38;3.08;;;;;;;;;;5037352;28;20582;-71
2022/11/15 06:05:07;;;;;;;3.50;3.20;;;;;;;;;;5037314;28;20209;-71
2022/11/15 06:07:34;;;;;;;3.72;3.42;;;;;;;;;;5037323;28;20490;-71
2022/11/15 06:10:02;;;;;;;3.88;2.97;;;;;;;;;;5036004;28;20236;-71
2022/11/15 06:12:29;;;;;;;3.53;3.22;;;;;;;;;;5035940;28;20233;-70
2022/11/15 06:14:57;;;;;;;4.35;3.40;;;;;;;;;;5036381;28;20212;-71
2022/11/15 06:17:24;;;;;;;3.47;3.17;;;;;;;;;;5035787;28;20201;-72
2022/11/15 06:19:53;;;;;;;3.42;3.13;;;;;;;;;;5035906;28;20216;-71
2022/11/15 06:22:20;;;;;;;4.00;3.17;;;;;;;;;;5036058;28;20209;-71
2022/11/15 06:24:48;;;;;;;3.40;3.10;;;;;;;;;;5036360;28;20197;-71
2022/11/15 06:27:16;;;;;;;3.30;3.00;;;;;;;;;;5036528;28;20202;-71
2022/11/15 06:29:43;;;;;;;3.80;3.05;;;;;;;;;;5036471;28;20632;-71
2022/11/15 06:32:11;;;;;;;3.97;2.80;;;;;;;;;;5036552;28;20638;-71
2022/11/15 06:34:38;;;;;;;3.50;3.20;;;;;;;;;;5037336;28;20216;-71
2022/11/15 06:37:07;;;;;;;3.22;3.03;;;;;;;;;;5036275;28;20216;-71
2022/11/15 06:39:34;;;;;;;3.58;2.95;;;;;;;;;;5036389;28;20259;-71
2022/11/15 06:42:02;;;;;;;3.05;2.83;;;;;;;;;;5035908;28;20208;-71
2022/11/15 06:44:29;;;;;;;3.00;2.80;;;;;;;;;;5036202;28;20211;-71
2022/11/15 06:46:57;;;;;;;2.97;2.78;;;;;;;;;;5035757;28;20201;-71
2022/11/15 06:49:24;;;;;;;3.38;3.10;;;;;;;;;;5034481;28;20201;-71
2022/11/15 06:51:51;;;;;;;3.38;2.60;;;;;;;;;;5034894;28;20244;-71
2022/11/15 06:54:20;;;;;;;3.10;2.90;;;;;;;;;;5035650;28;20272;-71
2022/11/15 06:56:48;;;;;;;3.25;2.90;;;;;;;;;;5036265;28;20214;-71
2022/11/15 06:59:15;;;;;;;3.10;2.80;;;;;;;;;;5035491;28;20267;-71
2022/11/15 07:01:43;;;;;;;3.67;2.90;;;;;;;;;;5034744;28;20197;-71
2022/11/15 07:04:10;;;;;;;3.17;2.97;;;;;;;;;;5036087;28;20228;-72
2022/11/15 07:06:38;;;;;;;2.80;2.60;;;;;;;;;;5036266;28;20213;-71
2022/11/15 07:09:05;;;;;;;3.20;3.00;;;;;;;;;;5036440;28;20205;-71
2022/11/15 07:11:34;;;;;;;3.00;2.80;;;;;;;;;;5035671;28;20530;-71
2022/11/15 07:14:02;;;;;;;3.20;2.90;;;;;;;;;;5036110;28;20204;-71
2022/11/15 07:16:29;;;;;;;3.13;2.63;;;;;;;;;;5036507;28;20217;-71
2022/11/15 07:18:56;;;;;;;3.10;2.80;;;;;;;;;;5036023;28;20486;-71
2022/11/15 07:21:24;;;;;;;2.92;2.70;;;;;;;;;;5035745;28;20193;-71
2022/11/15 07:23:51;;;;;;;3.03;2.83;;;;;;;;;;5035629;28;20666;-72
2022/11/15 07:26:19;;;;;;;3.10;2.80;;;;;;;;;;5034732;28;20592;-71
2022/11/15 07:28:47;;;;;;;3.13;2.92;;;;;;;;;;5035311;28;20328;-71
2022/11/15 07:31:15;;;;;;;2.72;2.53;;;;;;;;;;5035633;28;20212;-71
2022/11/15 07:33:43;;;;;;;2.97;2.78;;;;;;;;;;5036227;28;20280;-71
2022/11/15 07:36:10;;;;;;;3.25;2.95;;;;;;;;;;5035879;28;20725;-71
2022/11/15 07:38:38;;;;;;;2.90;2.70;;;;;;;;;;5035363;28;20216;-72
2022/11/15 07:41:07;;;;;;;3.05;2.75;;;;;;;;;;5035556;28;20634;-72
2022/11/15 07:43:35;;;;;;;3.08;2.88;;;;;;;;;;5036130;28;20228;-71
2022/11/15 07:46:09;;;;;;;2.92;2.70;;;;;;;;;;5035900;28;20205;-71
2022/11/15 07:48:36;;;;;;;3.00;2.80;;;;;;;;;;5034967;28;20594;-71
2022/11/15 07:51:04;;;;;;;3.50;2.88;;;;;;;;;;5034277;28;20216;-72
2022/11/15 07:53:31;;;;;;;3.25;2.88;;;;;;;;;;5035047;28;20208;-71
2022/11/15 07:55:58;;;;;;;2.90;2.70;;;;;;;;;;5035110;28;20583;-72
2022/11/15 07:58:26;;;;;;;3.50;3.20;;;;;;;;;;5034328;28;20484;-72
2022/11/15 08:00:53;;;;;;;3.20;2.88;;;;;;;;;;5034917;28;20206;-72
2022/11/15 08:03:22;;;;;;;3.47;2.75;;;;;;;;;;5033731;28;20200;-72
2022/11/15 08:05:52;;;;;;;2.85;2.65;;;;;;;;;;5034744;28;20206;-71
2022/11/15 08:08:19;;;;;;;3.40;3.10;;;;;;;;;;5033648;28;20210;-71
2022/11/15 08:10:47;;;;;;;2.80;2.60;;;;;;;;;;5035107;28;20206;-72
2022/11/15 08:13:15;;;;;;;3.20;2.90;;;;;;;;;;5033850;28;20225;-71
2022/11/15 08:15:42;;;;;;;3.28;2.85;;;;;;;;;;5037688;28;20193;-71
2022/11/15 08:18:11;;;;;;;3.03;2.53;;;;;;;;;;5036645;28;20202;-71
2022/11/15 08:20:40;;;;;;;3.20;3.00;;;;;;;;;;5033816;28;20205;-72
2022/11/15 08:23:09;;;;;;;7.95;7.25;;;;;;;;;;5034191;28;20602;-71
2022/11/15 08:25:37;;;;;;;24.08;21.77;;;;;;;;;;5034956;28;20213;-71
2022/11/15 08:28:05;;;;;;;17.45;15.85;;;;;;;;;;5034977;28;20210;-71
2022/11/15 08:30:36;;;;;;;17.90;16.30;;;;;;;;;;5034630;28;20255;-71
2022/11/15 08:33:04;;;;;;;17.33;15.75;;;;;;;;;;5033969;28;20513;-72
2022/11/15 08:35:31;;;;;;;19.13;17.52;;;;;;;;;;5034624;28;20308;-72
2022/11/15 08:38:00;;;;;;;20.38;18.55;;;;;;;;;;5035145;28;20491;-70
2022/11/15 08:40:28;;;;;;;17.70;16.02;;;;;;;;;;5034190;28;20205;-68
2022/11/15 08:42:55;;;;;;;17.08;15.50;;;;;;;;;;5033728;28;20738;-69
2022/11/15 08:45:22;;;;;;;17.60;15.15;;;;;;;;;;5035344;28;20505;-71
2022/11/15 08:47:50;;;;;;;15.57;13.98;;;;;;;;;;5034267;28;20281;-71
2022/11/15 08:50:17;;;;;;;15.70;14.20;;;;;;;;;;5033933;28;20201;-70
2022/11/15 08:52:45;;;;;;;14.65;13.25;;;;;;;;;;5033863;28;20233;-71
2022/11/15 08:55:16;;;;;;;14.68;13.23;;;;;;;;;;5034009;28;20206;-71
2022/11/15 08:57:43;;;;;;;13.93;12.63;;;;;;;;;;5034038;28;20197;-71
2022/11/15 09:00:12;;;;;;;21.27;19.38;;;;;;;;;;5033257;28;20242;-71
2022/11/15 09:02:40;;;;;;;20.42;18.70;;;;;;;;;;5034259;28;20210;-71
2022/11/15 09:05:08;;;;;;;19.20;17.50;;;;;;;;;;5032690;28;20201;-71
2022/11/15 09:07:36;;;;;;;17.67;15.88;;;;;;;;;;5033693;28;20206;-71
2022/11/15 09:10:03;;;;;;;16.15;14.85;;;;;;;;;;5033076;28;20237;-71
2022/11/15 09:12:32;;;;;;;16.15;14.77;;;;;;;;;;5033517;28;20225;-71
2022/11/15 09:15:00;;;;;;;15.73;14.43;;;;;;;;;;5032700;28;20591;-71
2022/11/15 09:17:27;;;;;;;15.43;13.93;;;;;;;;;;5033360;28;20248;-71
2022/11/15 09:19:54;;;;;;;14.57;13.15;;;;;;;;;;5034488;28;20218;-71
2022/11/15 09:22:22;;;;;;;13.85;12.65;;;;;;;;;;5033539;28;20202;-71
2022/11/15 09:24:49;;;;;;;13.82;12.65;;;;;;;;;;5035338;28;20483;-71
2022/11/15 09:27:17;;;;;;;13.10;12.00;;;;;;;;;;5037523;28;20214;-71
2022/11/15 09:29:45;;;;;;;15.90;12.27;;;;;;;;;;5037460;28;20206;-71
2022/11/15 09:32:13;;;;;;;11.88;10.98;;;;;;;;;;5037470;28;20221;-71
2022/11/15 09:34:40;;;;;;;12.20;11.10;;;;;;;;;;5037212;28;20206;-71
2022/11/15 09:37:07;;;;;;;11.57;10.57;;;;;;;;;;5037487;28;20245;-71
2022/11/15 09:39:35;;;;;;;11.23;10.27;;;;;;;;;;5036183;28;20205;-71
2022/11/15 09:42:20;;;;;;;10.75;9.93;;;;;;;;;;5035875;28;20723;-71
2022/11/15 09:44:58;;;;;;;11.23;10.32;;;;;;;;;;5036993;28;20248;-72
2022/11/15 09:47:50;;;;;;;10.70;9.80;;;;;;;;;;5036790;28;20201;-71
2022/11/15 09:50:22;;;;;;;9.95;9.15;;;;;;;;;;4946458;28;20240;-72
2022/11/15 09:52:50;;;;;;;9.85;9.05;;;;;;;;;;5036794;28;20786;-72
2022/11/15 09:55:21;;;;;;;8.90;8.20;;;;;;;;;;5037208;28;20201;-72
2022/11/15 09:57:52;;;;;;;8.93;8.25;;;;;;;;;;5036486;28;20210;-72
2022/11/15 10:00:23;;;;;;;8.90;8.20;;;;;;;;;;5036297;28;20248;-72
2022/11/15 10:06:07;;;;;;;8.88;8.05;;;;;;;;;;5037257;28;20202;-71
2022/11/15 10:08:48;;;;;;;8.45;7.68;;;;;;;;;;5036592;28;20268;-71
2022/11/15 10:11:18;;;;;;;8.18;7.53;;;;;;;;;;5036628;28;20202;-71
2022/11/15 10:13:48;;;;;;;7.82;7.22;;;;;;;;;;5035252;28;20217;-71
2022/11/15 10:16:29;;;;;;;7.70;7.10;;;;;;;;;;5036314;28;20209;-71
2022/11/15 10:19:03;;;;;;;8.13;7.43;;;;;;;;;;5035852;28;20213;-71
2022/11/15 10:21:34;;;;;;;7.65;7.05;;;;;;;;;;5035972;28;20198;-71
2022/11/15 10:24:01;;;;;;;7.30;6.70;;;;;;;;;;5034847;28;20213;-71
2022/11/15 10:26:29;;;;;;;7.70;6.65;;;;;;;;;;5034545;28;20202;-71
2022/11/15 10:28:56;;;;;;;7.43;6.35;;;;;;;;;;5035475;28;20292;-71
2022/11/15 10:31:30;;;;;;;6.95;6.35;;;;;;;;;;5037279;28;20205;-71
2022/11/15 10:34:06;;;;;;;6.32;5.82;;;;;;;;;;5035585;28;20622;-71
2022/11/15 10:36:33;;;;;;;6.88;6.20;;;;;;;;;;5034489;28;20602;-71
2022/11/15 10:39:01;;;;;;;6.15;5.65;;;;;;;;;;5036170;28;20232;-71
2022/11/15 10:41:34;;;;;;;6.50;6.00;;;;;;;;;;5035957;28;20233;-70
2022/11/15 10:44:11;;;;;;;6.22;5.63;;;;;;;;;;5035031;28;20229;-71
2022/11/15 10:46:41;;;;;;;5.97;5.47;;;;;;;;;;5035201;28;20206;-71
2022/11/15 10:49:14;;;;;;;5.75;5.30;;;;;;;;;;5035010;28;20216;-70
2022/11/15 10:51:43;;;;;;;6.03;5.53;;;;;;;;;;5035403;28;20201;-71
2022/11/15 10:54:13;;;;;;;5.63;5.13;;;;;;;;;;5035516;28;20226;-71
2022/11/15 10:56:41;;;;;;;6.25;5.75;;;;;;;;;;5035022;28;20213;-71
2022/11/15 10:59:15;;;;;;;5.53;5.13;;;;;;;;;;5034192;28;20647;-71
2022/11/15 11:01:49;;;;;;;5.82;5.38;;;;;;;;;;5034364;28;20204;-71
2022/11/15 11:04:18;;;;;;;5.10;4.70;;;;;;;;;;5035196;28;20279;-71
2022/11/15 11:06:49;;;;;;;5.10;4.70;;;;;;;;;;5034812;28;20380;-71
2022/11/15 11:09:32;;;;;;;4.70;4.40;;;;;;;;;;5035177;28;20469;-71
2022/11/15 11:11:59;;;;;;;4.80;4.43;;;;;;;;;;5030991;28;20236;-71
2022/11/15 11:14:28;;;;;;;5.00;4.60;;;;;;;;;;5034740;28;20231;-71
2022/11/15 11:17:00;;;;;;;4.97;4.57;;;;;;;;;;5034469;28;20202;-71
2022/11/15 11:19:39;;;;;;;4.68;4.28;;;;;;;;;;5035408;28;20832;-71
2022/11/15 11:22:11;;;;;;;4.82;4.35;;;;;;;;;;5034372;28;20197;-71
2022/11/15 11:24:42;;;;;;;4.60;4.30;;;;;;;;;;5033331;28;20201;-71
2022/11/15 11:27:15;;;;;;;11.15;4.22;;;;;;;;;;5033518;28;20201;-69
2022/11/15 11:29:48;;;;;;;4.15;3.83;;;;;;;;;;5034354;28;20213;-71
2022/11/15 11:32:24;;;;;;;11.02;4.30;;;;;;;;;;5034867;28;20202;-71
2022/11/15 11:34:56;;;;;;;4.05;3.75;;;;;;;;;;5034938;28;20315;-71
2022/11/15 11:37:29;;;;;;;4.03;3.72;;;;;;;;;;5033974;28;20201;-71
2022/11/15 11:40:12;;;;;;;4.00;3.70;;;;;;;;;;5034285;28;20205;-71
2022/11/15 11:42:44;;;;;;;4.03;3.67;;;;;;;;;;5034312;28;20204;-71
2022/11/15 11:45:17;;;;;;;3.80;3.50;;;;;;;;;;5033979;28;20208;-71
2022/11/15 11:47:48;;;;;;;3.83;3.53;;;;;;;;;;5033512;28;20213;-71
2022/11/15 11:50:18;;;;;;;3.60;3.35;;;;;;;;;;5033566;28;20244;-70
2022/11/15 11:52:53;;;;;;;3.35;3.15;;;;;;;;;;5033222;28;20233;-71
2022/11/15 11:55:22;;;;;;;4.03;3.63;;;;;;;;;;5034036;28;20209;-71
2022/11/15 11:57:52;;;;;;;4.00;3.70;;;;;;;;;;5034328;28;20215;-71
2022/11/15 12:00:21;;;;;;;3.42;3.13;;;;;;;;;;5032884;28;20499;-71
2022/11/15 12:02:52;;;;;;;3.40;3.10;;;;;;;;;;5032488;28;20194;-71
2022/11/15 12:05:22;;;;;;;3.25;3.00;;;;;;;;;;5033490;28;20206;-71
2022/11/15 12:07:51;;;;;;;3.50;3.25;;;;;;;;;;5033435;28;20220;-71
2022/11/15 12:10:22;;;;;;;3.25;3.05;;;;;;;;;;5033818;28;20216;-71
2022/11/15 12:12:54;;;;;;;3.35;3.15;;;;;;;;;;5032821;28;20254;-71
2022/11/15 12:15:23;;;;;;;3.15;2.95;;;;;;;;;;5034014;28;20240;-70
2022/11/15 12:17:53;;;;;;;3.40;3.10;;;;;;;;;;5033644;28;20228;-70
2022/11/15 12:20:22;;;;;;;3.40;3.13;;;;;;;;;;5033312;28;20202;-70
2022/11/15 12:22:53;;;;;;;3.40;3.20;;;;;;;;;;5033102;28;20193;-70
2022/11/15 12:25:22;;;;;;;3.22;2.95;;;;;;;;;;5033211;28;20728;-70
2022/11/15 12:27:52;;;;;;;2.83;2.60;;;;;;;;;;5031841;28;20253;-71
2022/11/15 12:30:21;;;;;;;2.92;2.72;;;;;;;;;;5033885;28;20213;-71
2022/11/15 12:32:54;;;;;;;2.88;2.67;;;;;;;;;;5033579;28;20197;-71
2022/11/15 12:35:39;;;;;;;3.20;3.00;;;;;;;;;;5032684;28;20213;-71
2022/11/15 12:38:10;;;;;;;2.80;2.60;;;;;;;;;;5033519;28;20205;-71
2022/11/15 12:40:39;;;;;;;3.00;2.80;;;;;;;;;;5033112;28;20762;-70
2022/11/15 12:43:28;;;;;;;3.10;2.90;;;;;;;;;;5033468;28;20216;-71
2022/11/15 12:45:56;;;;;;;3.08;2.88;;;;;;;;;;5032608;28;20212;-71
2022/11/15 12:48:42;;;;;;;2.67;2.47;;;;;;;;;;5034129;28;20233;-71
2022/11/15 12:51:11;;;;;;;2.67;2.47;;;;;;;;;;5032916;28;20271;-71
2022/11/15 12:53:38;;;;;;;3.00;2.80;;;;;;;;;;5032694;28;20229;-70
2022/11/15 12:56:21;;;;;;;2.65;2.45;;;;;;;;;;5033286;28;20216;-71
2022/11/15 12:58:50;;;;;;;2.70;2.50;;;;;;;;;;5032932;28;20241;-71
2022/11/15 13:01:35;;;;;;;2.70;2.50;;;;;;;;;;5037135;28;20198;-71
2022/11/15 13:04:10;;;;;;;2.30;2.20;;;;;;;;;;5037290;28;20205;-71
2022/11/15 13:06:42;;;;;;;2.60;2.40;;;;;;;;;;5036895;28;20470;-71
2022/11/15 13:09:34;;;;;;;2.65;2.45;;;;;;;;;;5037009;28;20212;-70
2022/11/15 13:12:03;;;;;;;2.38;2.17;;;;;;;;;;5013324;28;20215;-71
2022/11/15 13:14:44;;;;;;;2.28;2.17;;;;;;;;;;5037327;28;20324;-71
2022/11/15 13:17:26;;;;;;;2.60;2.40;;;;;;;;;;5035491;28;20202;-71
2022/11/15 13:19:58;;;;;;;2.40;2.30;;;;;;;;;;5035769;28;20197;-71
2022/11/15 13:25:20;;;;;;;2.45;2.28;;;;;;;;;;5036538;28;20203;-71
2022/11/15 13:27:49;;;;;;;2.47;2.28;;;;;;;;;;5036686;28;20209;-71
2022/11/15 13:30:20;;;;;;;2.13;2.00;;;;;;;;;;5036170;28;20217;-71
2022/11/15 13:32:48;;;;;;;2.42;2.22;;;;;;;;;;5036319;28;20213;-70
2022/11/15 13:35:20;;;;;;;2.08;1.98;;;;;;;;;;5035505;28;20216;-71
2022/11/15 13:37:49;;;;;;;1.95;1.85;;;;;;;;;;5035298;28;20201;-71
2022/11/15 13:40:24;;;;;;;2.10;2.00;;;;;;;;;;5035621;28;20213;-71
2022/11/15 13:42:51;;;;;;;2.15;2.03;;;;;;;;;;5036532;28;20694;-71
2022/11/15 13:45:19;;;;;;;2.55;2.40;;;;;;;;;;5036608;28;20202;-71
2022/11/15 13:47:52;;;;;;;2.42;2.28;;;;;;;;;;5036640;28;20533;-70
2022/11/15 13:50:22;;;;;;;2.20;2.00;;;;;;;;;;5035862;28;20205;-72
2022/11/15 13:52:51;;;;;;;2.53;2.33;;;;;;;;;;5036278;28;20212;-71
2022/11/15 13:55:20;;;;;;;2.00;1.90;;;;;;;;;;5036493;28;20249;-71
2022/11/15 13:57:49;;;;;;;2.00;1.90;;;;;;;;;;5035037;28;20239;-71
2022/11/15 14:00:34;;;;;;;1.90;1.80;;;;;;;;;;5035758;28;20230;-70
2022/11/15 14:03:07;;;;;;;1.95;1.85;;;;;;;;;;5034123;28;20699;-71
2022/11/15 14:05:35;;;;;;;2.03;1.92;;;;;;;;;;5035669;28;20205;-70
2022/11/15 14:08:07;;;;;;;2.00;1.90;;;;;;;;;;5036456;28;20198;-71
2022/11/15 14:10:35;;;;;;;1.90;1.80;;;;;;;;;;5034197;28;20206;-70
2022/11/15 14:13:04;;;;;;;1.67;1.58;;;;;;;;;;5034647;28;20204;-71
2022/11/15 14:15:33;;;;;;;1.80;1.70;;;;;;;;;;5034529;28;20602;-71
2022/11/15 14:18:01;;;;;;;1.85;1.75;;;;;;;;;;5034926;28;20208;-71
2022/11/15 14:20:30;;;;;;;1.70;1.60;;;;;;;;;;5035399;28;20212;-71
2022/11/15 14:22:59;;;;;;;1.77;1.67;;;;;;;;;;5035239;28;20202;-71
2022/11/15 14:25:28;;;;;;;1.70;1.60;;;;;;;;;;5034277;28;20240;-71
2022/11/15 14:28:15;;;;;;;1.90;1.80;;;;;;;;;;5034847;28;20202;-71
2022/11/15 14:30:42;;;;;;;1.83;1.73;;;;;;;;;;5035581;28;20205;-71
2022/11/15 14:33:21;;;;;;;1.85;1.75;;;;;;;;;;5034688;28;20201;-71
2022/11/15 14:35:49;;;;;;;2.00;1.90;;;;;;;;;;5035279;28;20208;-71
2022/11/15 14:38:16;;;;;;;1.65;1.55;;;;;;;;;;5034766;28;20267;-71
2022/11/15 14:40:45;;;;;;;1.80;1.70;;;;;;;;;;5033470;28;20216;-71
2022/11/15 14:43:13;;;;;;;1.90;1.80;;;;;;;;;;5033406;28;20631;-71
2022/11/15 14:45:41;;;;;;;1.75;1.65;;;;;;;;;;5034695;28;20216;-71
2022/11/15 14:48:09;;;;;;;1.83;1.73;;;;;;;;;;5034993;28;20515;-71
2022/11/15 14:50:36;;;;;;;1.60;1.50;;;;;;;;;;5034551;28;20202;-71
2022/11/15 14:53:04;;;;;;;1.55;1.45;;;;;;;;;;5034051;28;20206;-71
2022/11/15 14:55:34;;;;;;;1.75;1.65;;;;;;;;;;5034925;28;20617;-71
2022/11/15 14:58:04;;;;;;;1.65;1.55;;;;;;;;;;5034791;28;20323;-71
2022/11/15 15:00:31;;;;;;;1.80;1.70;;;;;;;;;;5034223;28;20252;-71
2022/11/15 15:02:58;;;;;;;1.65;1.55;;;;;;;;;;5034107;28;20209;-71
2022/11/15 15:05:27;;;;;;;1.63;1.52;;;;;;;;;;5033896;28;20208;-71
2022/11/15 15:07:54;;;;;;;1.60;1.50;;;;;;;;;;5034975;28;20483;-71
2022/11/15 15:10:22;;;;;;;1.50;1.40;;;;;;;;;;5033303;28;20696;-71
2022/11/15 15:12:50;;;;;;;1.60;1.50;;;;;;;;;;5034813;28;20197;-71
2022/11/15 15:15:20;;;;;;;1.60;1.50;;;;;;;;;;5033055;28;20828;-71